sensor_id;sensor_type;location;lat;lon;timestamp;P1;durP1;ratioP1;P2;durP2;ratioP2
61915;SDS011;47868;51.326;6.550;2023-03-24T00:02:19;5.70;;;2.60;;
61915;SDS011;47868;51.326;6.550;2023-03-24T00:04:48;3.30;;;2.53;;
61915;SDS011;47868;51.326;6.550;2023-03-24T00:07:17;2.35;;;2.13;;
61915;SDS011;47868;51.326;6.550;2023-03-24T00:09:43;6.20;;;2.65;;
61915;SDS011;47868;51.326;6.550;2023-03-24T00:12:10;5.05;;;2.58;;
61915;SDS011;47868;51.326;6.550;2023-03-24T00:14:38;3.35;;;2.30;;
61915;SDS011;47868;51.326;6.550;2023-03-24T00:17:04;3.40;;;2.20;;
61915;SDS011;47868;51.326;6.550;2023-03-24T00:19:31;5.50;;;2.45;;
61915;SDS011;47868;51.326;6.550;2023-03-24T00:21:58;4.97;;;2.33;;
61915;SDS011;47868;51.326;6.550;2023-03-24T00:24:24;2.53;;;2.33;;
61915;SDS011;47868;51.326;6.550;2023-03-24T00:26:51;4.03;;;2.50;;
61915;SDS011;47868;51.326;6.550;2023-03-24T00:29:21;3.75;;;2.65;;
61915;SDS011;47868;51.326;6.550;2023-03-24T00:31:48;3.83;;;2.40;;
61915;SDS011;47868;51.326;6.550;2023-03-24T00:34:17;3.90;;;2.58;;
61915;SDS011;47868;51.326;6.550;2023-03-24T00:36:45;3.45;;;2.50;;
61915;SDS011;47868;51.326;6.550;2023-03-24T00:39:12;3.92;;;2.38;;
61915;SDS011;47868;51.326;6.550;2023-03-24T00:41:39;3.88;;;2.45;;
61915;SDS011;47868;51.326;6.550;2023-03-24T00:44:09;4.95;;;2.47;;
61915;SDS011;47868;51.326;6.550;2023-03-24T00:46:42;2.30;;;2.10;;
61915;SDS011;47868;51.326;6.550;2023-03-24T00:49:10;2.55;;;1.92;;
61915;SDS011;47868;51.326;6.550;2023-03-24T00:51:40;4.22;;;2.03;;
61915;SDS011;47868;51.326;6.550;2023-03-24T00:54:08;3.22;;;2.42;;
61915;SDS011;47868;51.326;6.550;2023-03-24T00:56:35;2.70;;;2.40;;
61915;SDS011;47868;51.326;6.550;2023-03-24T00:59:04;2.42;;;2.10;;
61915;SDS011;47868;51.326;6.550;2023-03-24T01:01:31;5.28;;;2.38;;
61915;SDS011;47868;51.326;6.550;2023-03-24T01:03:58;3.70;;;2.53;;
61915;SDS011;47868;51.326;6.550;2023-03-24T01:06:26;2.42;;;2.20;;
61915;SDS011;47868;51.326;6.550;2023-03-24T01:08:52;4.22;;;2.40;;
61915;SDS011;47868;51.326;6.550;2023-03-24T01:11:20;3.10;;;2.45;;
61915;SDS011;47868;51.326;6.550;2023-03-24T01:13:47;3.55;;;2.40;;
61915;SDS011;47868;51.326;6.550;2023-03-24T01:16:13;3.10;;;2.53;;
61915;SDS011;47868;51.326;6.550;2023-03-24T01:18:40;4.38;;;2.22;;
61915;SDS011;47868;51.326;6.550;2023-03-24T01:21:06;6.20;;;2.17;;
61915;SDS011;47868;51.326;6.550;2023-03-24T01:23:33;2.35;;;2.15;;
61915;SDS011;47868;51.326;6.550;2023-03-24T01:26:00;3.65;;;2.38;;
61915;SDS011;47868;51.326;6.550;2023-03-24T01:28:28;4.35;;;2.30;;
61915;SDS011;47868;51.326;6.550;2023-03-24T01:30:54;2.83;;;2.35;;
61915;SDS011;47868;51.326;6.550;2023-03-24T01:33:20;3.10;;;2.50;;
61915;SDS011;47868;51.326;6.550;2023-03-24T01:35:47;2.40;;;2.20;;
61915;SDS011;47868;51.326;6.550;2023-03-24T01:38:13;3.20;;;2.80;;
61915;SDS011;47868;51.326;6.550;2023-03-24T01:40:40;3.13;;;2.83;;
61915;SDS011;47868;51.326;6.550;2023-03-24T01:43:07;4.15;;;2.67;;
61915;SDS011;47868;51.326;6.550;2023-03-24T01:48:04;3.58;;;2.80;;
61915;SDS011;47868;51.326;6.550;2023-03-24T01:50:31;2.83;;;2.63;;
61915;SDS011;47868;51.326;6.550;2023-03-24T01:52:57;4.00;;;2.80;;
61915;SDS011;47868;51.326;6.550;2023-03-24T01:55:23;3.92;;;2.67;;
61915;SDS011;47868;51.326;6.550;2023-03-24T01:57:51;6.38;;;2.90;;
61915;SDS011;47868;51.326;6.550;2023-03-24T02:00:18;3.75;;;3.00;;
61915;SDS011;47868;51.326;6.550;2023-03-24T02:02:56;4.82;;;2.90;;
61915;SDS011;47868;51.326;6.550;2023-03-24T02:05:25;4.38;;;2.70;;
61915;SDS011;47868;51.326;6.550;2023-03-24T02:08:00;3.63;;;2.85;;
61915;SDS011;47868;51.326;6.550;2023-03-24T02:10:27;3.05;;;2.75;;
61915;SDS011;47868;51.326;6.550;2023-03-24T02:12:55;3.28;;;2.97;;
61915;SDS011;47868;51.326;6.550;2023-03-24T02:15:21;2.97;;;2.78;;
61915;SDS011;47868;51.326;6.550;2023-03-24T02:20:27;4.10;;;3.25;;
61915;SDS011;47868;51.326;6.550;2023-03-24T02:45:59;3.20;;;2.90;;
61915;SDS011;47868;51.326;6.550;2023-03-24T02:48:33;3.28;;;2.97;;
61915;SDS011;47868;51.326;6.550;2023-03-24T02:53:39;3.08;;;2.78;;
61915;SDS011;47868;51.326;6.550;2023-03-24T02:56:09;3.15;;;2.83;;
61915;SDS011;47868;51.326;6.550;2023-03-24T02:58:51;3.53;;;2.85;;
61915;SDS011;47868;51.326;6.550;2023-03-24T03:01:20;3.65;;;2.83;;
61915;SDS011;47868;51.326;6.550;2023-03-24T03:03:55;3.22;;;2.33;;
61915;SDS011;47868;51.326;6.550;2023-03-24T03:06:29;4.90;;;2.90;;
61915;SDS011;47868;51.326;6.550;2023-03-24T03:08:56;2.90;;;2.55;;
61915;SDS011;47868;51.326;6.550;2023-03-24T03:11:23;4.00;;;2.70;;
61915;SDS011;47868;51.326;6.550;2023-03-24T03:14:00;2.67;;;2.38;;
61915;SDS011;47868;51.326;6.550;2023-03-24T03:16:29;2.70;;;2.50;;
61915;SDS011;47868;51.326;6.550;2023-03-24T03:19:02;3.63;;;2.50;;
61915;SDS011;47868;51.326;6.550;2023-03-24T03:21:35;3.03;;;2.83;;
61915;SDS011;47868;51.326;6.550;2023-03-24T03:24:05;3.40;;;2.45;;
61915;SDS011;47868;51.326;6.550;2023-03-24T03:26:31;2.85;;;2.17;;
61915;SDS011;47868;51.326;6.550;2023-03-24T03:29:00;2.90;;;2.50;;
61915;SDS011;47868;51.326;6.550;2023-03-24T03:31:36;3.22;;;2.67;;
61915;SDS011;47868;51.326;6.550;2023-03-24T03:34:21;3.50;;;2.40;;
61915;SDS011;47868;51.326;6.550;2023-03-24T03:36:54;2.70;;;2.25;;
61915;SDS011;47868;51.326;6.550;2023-03-24T03:39:22;2.55;;;2.28;;
61915;SDS011;47868;51.326;6.550;2023-03-24T03:41:52;3.13;;;2.80;;
61915;SDS011;47868;51.326;6.550;2023-03-24T03:44:18;3.70;;;2.45;;
61915;SDS011;47868;51.326;6.550;2023-03-24T03:46:44;3.22;;;2.53;;
61915;SDS011;47868;51.326;6.550;2023-03-24T03:49:10;3.72;;;3.10;;
61915;SDS011;47868;51.326;6.550;2023-03-24T03:51:37;2.80;;;2.60;;
61915;SDS011;47868;51.326;6.550;2023-03-24T03:54:04;3.50;;;2.83;;
61915;SDS011;47868;51.326;6.550;2023-03-24T03:56:31;2.88;;;2.58;;
61915;SDS011;47868;51.326;6.550;2023-03-24T03:58:58;4.25;;;2.70;;
61915;SDS011;47868;51.326;6.550;2023-03-24T04:01:25;3.78;;;2.95;;
61915;SDS011;47868;51.326;6.550;2023-03-24T04:09:08;3.35;;;2.95;;
61915;SDS011;47868;51.326;6.550;2023-03-24T04:11:43;5.28;;;3.05;;
61915;SDS011;47868;51.326;6.550;2023-03-24T04:14:25;4.68;;;3.15;;
61915;SDS011;47868;51.326;6.550;2023-03-24T04:17:08;4.22;;;3.53;;
61915;SDS011;47868;51.326;6.550;2023-03-24T04:24:54;4.25;;;3.72;;
61915;SDS011;47868;51.326;6.550;2023-03-24T04:32:31;3.10;;;2.90;;
61915;SDS011;47868;51.326;6.550;2023-03-24T04:35:01;4.07;;;2.63;;
61915;SDS011;47868;51.326;6.550;2023-03-24T04:37:30;3.60;;;2.85;;
61915;SDS011;47868;51.326;6.550;2023-03-24T04:39:58;4.03;;;2.50;;
61915;SDS011;47868;51.326;6.550;2023-03-24T04:42:26;3.47;;;2.45;;
61915;SDS011;47868;51.326;6.550;2023-03-24T04:44:55;2.70;;;2.50;;
61915;SDS011;47868;51.326;6.550;2023-03-24T04:47:23;3.65;;;2.60;;
61915;SDS011;47868;51.326;6.550;2023-03-24T04:49:50;2.80;;;2.42;;
61915;SDS011;47868;51.326;6.550;2023-03-24T04:52:16;3.58;;;2.42;;
61915;SDS011;47868;51.326;6.550;2023-03-24T04:54:42;2.40;;;2.20;;
61915;SDS011;47868;51.326;6.550;2023-03-24T04:57:08;4.15;;;2.20;;
61915;SDS011;47868;51.326;6.550;2023-03-24T04:59:34;1.98;;;1.75;;
61915;SDS011;47868;51.326;6.550;2023-03-24T05:02:03;2.88;;;2.20;;
61915;SDS011;47868;51.326;6.550;2023-03-24T05:04:29;2.95;;;2.00;;
61915;SDS011;47868;51.326;6.550;2023-03-24T05:06:55;4.72;;;2.10;;
61915;SDS011;47868;51.326;6.550;2023-03-24T05:09:22;2.25;;;1.60;;
61915;SDS011;47868;51.326;6.550;2023-03-24T05:11:49;3.53;;;2.13;;
61915;SDS011;47868;51.326;6.550;2023-03-24T05:14:15;4.43;;;1.88;;
61915;SDS011;47868;51.326;6.550;2023-03-24T05:16:42;3.53;;;2.42;;
61915;SDS011;47868;51.326;6.550;2023-03-24T05:19:08;4.05;;;2.03;;
61915;SDS011;47868;51.326;6.550;2023-03-24T05:21:34;5.47;;;2.10;;
61915;SDS011;47868;51.326;6.550;2023-03-24T05:24:00;2.95;;;1.95;;
61915;SDS011;47868;51.326;6.550;2023-03-24T05:26:26;5.07;;;2.38;;
61915;SDS011;47868;51.326;6.550;2023-03-24T05:28:52;5.28;;;2.40;;
61915;SDS011;47868;51.326;6.550;2023-03-24T05:31:18;4.63;;;2.45;;
61915;SDS011;47868;51.326;6.550;2023-03-24T05:33:44;4.07;;;2.28;;
61915;SDS011;47868;51.326;6.550;2023-03-24T05:36:11;4.18;;;2.30;;
61915;SDS011;47868;51.326;6.550;2023-03-24T05:38:37;3.50;;;2.50;;
61915;SDS011;47868;51.326;6.550;2023-03-24T05:41:03;4.68;;;2.25;;
61915;SDS011;47868;51.326;6.550;2023-03-24T05:43:30;5.13;;;2.50;;
61915;SDS011;47868;51.326;6.550;2023-03-24T05:45:56;5.47;;;2.22;;
61915;SDS011;47868;51.326;6.550;2023-03-24T05:48:24;2.78;;;1.80;;
61915;SDS011;47868;51.326;6.550;2023-03-24T05:50:50;5.38;;;1.95;;
61915;SDS011;47868;51.326;6.550;2023-03-24T05:53:16;5.53;;;1.90;;
61915;SDS011;47868;51.326;6.550;2023-03-24T05:55:43;5.38;;;2.00;;
61915;SDS011;47868;51.326;6.550;2023-03-24T05:58:10;7.60;;;2.38;;
61915;SDS011;47868;51.326;6.550;2023-03-24T06:00:36;8.63;;;2.58;;
61915;SDS011;47868;51.326;6.550;2023-03-24T06:03:02;4.97;;;2.13;;
61915;SDS011;47868;51.326;6.550;2023-03-24T06:05:29;7.32;;;2.35;;
61915;SDS011;47868;51.326;6.550;2023-03-24T06:07:55;11.68;;;2.47;;
61915;SDS011;47868;51.326;6.550;2023-03-24T06:10:26;8.13;;;2.78;;
61915;SDS011;47868;51.326;6.550;2023-03-24T06:12:53;9.02;;;2.67;;
61915;SDS011;47868;51.326;6.550;2023-03-24T06:15:20;6.03;;;2.78;;
61915;SDS011;47868;51.326;6.550;2023-03-24T06:17:47;7.47;;;2.75;;
61915;SDS011;47868;51.326;6.550;2023-03-24T06:20:14;10.27;;;3.15;;
61915;SDS011;47868;51.326;6.550;2023-03-24T06:22:42;13.27;;;2.60;;
61915;SDS011;47868;51.326;6.550;2023-03-24T06:25:09;7.47;;;2.83;;
61915;SDS011;47868;51.326;6.550;2023-03-24T06:27:35;6.20;;;2.15;;
61915;SDS011;47868;51.326;6.550;2023-03-24T06:30:02;8.77;;;2.63;;
61915;SDS011;47868;51.326;6.550;2023-03-24T06:32:29;9.98;;;2.80;;
61915;SDS011;47868;51.326;6.550;2023-03-24T06:34:55;8.52;;;2.45;;
61915;SDS011;47868;51.326;6.550;2023-03-24T06:37:21;6.43;;;2.17;;
61915;SDS011;47868;51.326;6.550;2023-03-24T06:39:47;14.85;;;2.50;;
61915;SDS011;47868;51.326;6.550;2023-03-24T06:42:13;6.88;;;2.22;;
61915;SDS011;47868;51.326;6.550;2023-03-24T06:44:40;11.60;;;2.28;;
61915;SDS011;47868;51.326;6.550;2023-03-24T06:47:06;9.13;;;2.47;;
61915;SDS011;47868;51.326;6.550;2023-03-24T06:49:32;7.82;;;2.30;;
61915;SDS011;47868;51.326;6.550;2023-03-24T06:52:01;6.90;;;2.83;;
61915;SDS011;47868;51.326;6.550;2023-03-24T06:54:27;6.00;;;2.22;;
61915;SDS011;47868;51.326;6.550;2023-03-24T06:56:53;10.15;;;2.63;;
61915;SDS011;47868;51.326;6.550;2023-03-24T06:59:19;6.82;;;2.60;;
61915;SDS011;47868;51.326;6.550;2023-03-24T07:01:48;11.52;;;2.80;;
61915;SDS011;47868;51.326;6.550;2023-03-24T07:04:14;9.65;;;2.55;;
61915;SDS011;47868;51.326;6.550;2023-03-24T07:06:40;12.30;;;2.55;;
61915;SDS011;47868;51.326;6.550;2023-03-24T07:09:06;9.65;;;2.80;;
61915;SDS011;47868;51.326;6.550;2023-03-24T07:11:33;10.30;;;3.20;;
61915;SDS011;47868;51.326;6.550;2023-03-24T07:13:59;14.00;;;3.25;;
61915;SDS011;47868;51.326;6.550;2023-03-24T07:16:25;10.35;;;2.47;;
61915;SDS011;47868;51.326;6.550;2023-03-24T07:18:51;8.65;;;2.88;;
61915;SDS011;47868;51.326;6.550;2023-03-24T07:21:17;8.65;;;2.40;;
61915;SDS011;47868;51.326;6.550;2023-03-24T07:23:44;11.75;;;2.97;;
61915;SDS011;47868;51.326;6.550;2023-03-24T07:26:10;8.98;;;2.72;;
61915;SDS011;47868;51.326;6.550;2023-03-24T07:28:37;9.43;;;2.30;;
61915;SDS011;47868;51.326;6.550;2023-03-24T07:31:03;8.80;;;2.30;;
61915;SDS011;47868;51.326;6.550;2023-03-24T07:33:30;7.65;;;2.25;;
61915;SDS011;47868;51.326;6.550;2023-03-24T07:35:57;8.80;;;2.85;;
61915;SDS011;47868;51.326;6.550;2023-03-24T07:38:24;4.97;;;1.88;;
61915;SDS011;47868;51.326;6.550;2023-03-24T07:40:50;11.00;;;2.45;;
61915;SDS011;47868;51.326;6.550;2023-03-24T07:43:16;9.93;;;2.35;;
61915;SDS011;47868;51.326;6.550;2023-03-24T07:45:43;11.57;;;2.88;;
61915;SDS011;47868;51.326;6.550;2023-03-24T07:48:10;9.63;;;2.55;;
61915;SDS011;47868;51.326;6.550;2023-03-24T07:50:36;15.52;;;2.45;;
61915;SDS011;47868;51.326;6.550;2023-03-24T07:53:02;10.38;;;2.60;;
61915;SDS011;47868;51.326;6.550;2023-03-24T07:55:28;9.60;;;2.60;;
61915;SDS011;47868;51.326;6.550;2023-03-24T07:57:54;9.43;;;3.15;;
61915;SDS011;47868;51.326;6.550;2023-03-24T08:00:20;12.68;;;2.80;;
61915;SDS011;47868;51.326;6.550;2023-03-24T08:02:49;12.32;;;3.17;;
61915;SDS011;47868;51.326;6.550;2023-03-24T08:05:17;9.55;;;3.13;;
61915;SDS011;47868;51.326;6.550;2023-03-24T08:07:44;11.57;;;3.33;;
61915;SDS011;47868;51.326;6.550;2023-03-24T08:10:14;20.13;;;3.38;;
61915;SDS011;47868;51.326;6.550;2023-03-24T08:12:40;15.43;;;3.28;;
61915;SDS011;47868;51.326;6.550;2023-03-24T08:15:07;11.77;;;3.38;;
61915;SDS011;47868;51.326;6.550;2023-03-24T08:17:34;11.10;;;3.60;;
61915;SDS011;47868;51.326;6.550;2023-03-24T08:20:00;13.65;;;2.97;;
61915;SDS011;47868;51.326;6.550;2023-03-24T08:22:37;15.15;;;3.78;;
61915;SDS011;47868;51.326;6.550;2023-03-24T08:25:04;11.40;;;3.65;;
61915;SDS011;47868;51.326;6.550;2023-03-24T08:27:31;13.82;;;3.58;;
61915;SDS011;47868;51.326;6.550;2023-03-24T08:29:57;12.90;;;3.55;;
61915;SDS011;47868;51.326;6.550;2023-03-24T08:32:23;9.88;;;3.40;;
61915;SDS011;47868;51.326;6.550;2023-03-24T08:34:49;13.63;;;3.83;;
61915;SDS011;47868;51.326;6.550;2023-03-24T08:37:15;11.73;;;3.63;;
61915;SDS011;47868;51.326;6.550;2023-03-24T08:39:41;11.82;;;3.58;;
61915;SDS011;47868;51.326;6.550;2023-03-24T08:42:07;13.10;;;3.75;;
61915;SDS011;47868;51.326;6.550;2023-03-24T08:44:33;11.75;;;2.90;;
61915;SDS011;47868;51.326;6.550;2023-03-24T08:46:59;7.63;;;3.17;;
61915;SDS011;47868;51.326;6.550;2023-03-24T08:49:25;15.90;;;3.80;;
61915;SDS011;47868;51.326;6.550;2023-03-24T08:51:51;11.55;;;3.95;;
61915;SDS011;47868;51.326;6.550;2023-03-24T08:54:17;9.52;;;3.42;;
61915;SDS011;47868;51.326;6.550;2023-03-24T08:56:45;10.00;;;3.65;;
61915;SDS011;47868;51.326;6.550;2023-03-24T08:59:11;12.32;;;3.67;;
61915;SDS011;47868;51.326;6.550;2023-03-24T09:01:37;10.00;;;3.40;;
61915;SDS011;47868;51.326;6.550;2023-03-24T09:04:04;10.88;;;3.58;;
61915;SDS011;47868;51.326;6.550;2023-03-24T09:06:30;7.97;;;2.65;;
61915;SDS011;47868;51.326;6.550;2023-03-24T09:08:56;13.18;;;3.13;;
61915;SDS011;47868;51.326;6.550;2023-03-24T09:11:22;12.02;;;3.10;;
61915;SDS011;47868;51.326;6.550;2023-03-24T09:13:49;11.60;;;3.15;;
61915;SDS011;47868;51.326;6.550;2023-03-24T09:16:15;14.88;;;3.83;;
61915;SDS011;47868;51.326;6.550;2023-03-24T09:18:42;9.18;;;3.22;;
61915;SDS011;47868;51.326;6.550;2023-03-24T09:21:08;11.80;;;3.80;;
61915;SDS011;47868;51.326;6.550;2023-03-24T09:23:41;10.30;;;2.70;;
61915;SDS011;47868;51.326;6.550;2023-03-24T09:26:07;14.60;;;3.53;;
61915;SDS011;47868;51.326;6.550;2023-03-24T09:28:33;11.50;;;3.30;;
61915;SDS011;47868;51.326;6.550;2023-03-24T09:31:00;12.10;;;3.10;;
61915;SDS011;47868;51.326;6.550;2023-03-24T09:33:26;8.88;;;2.97;;
61915;SDS011;47868;51.326;6.550;2023-03-24T09:35:57;9.52;;;2.75;;
61915;SDS011;47868;51.326;6.550;2023-03-24T09:38:23;12.25;;;3.05;;
61915;SDS011;47868;51.326;6.550;2023-03-24T09:40:51;10.75;;;2.80;;
61915;SDS011;47868;51.326;6.550;2023-03-24T09:43:26;10.02;;;2.88;;
61915;SDS011;47868;51.326;6.550;2023-03-24T09:45:56;16.15;;;3.38;;
61915;SDS011;47868;51.326;6.550;2023-03-24T09:48:26;11.05;;;2.97;;
61915;SDS011;47868;51.326;6.550;2023-03-24T09:53:36;13.27;;;3.05;;
61915;SDS011;47868;51.326;6.550;2023-03-24T09:56:15;10.20;;;2.65;;
61915;SDS011;47868;51.326;6.550;2023-03-24T09:58:42;10.63;;;3.13;;
61915;SDS011;47868;51.326;6.550;2023-03-24T10:01:10;8.80;;;2.58;;
61915;SDS011;47868;51.326;6.550;2023-03-24T10:03:38;11.60;;;2.88;;
61915;SDS011;47868;51.326;6.550;2023-03-24T10:06:20;18.60;;;3.25;;
61915;SDS011;47868;51.326;6.550;2023-03-24T10:08:53;10.68;;;2.20;;
61915;SDS011;47868;51.326;6.550;2023-03-24T10:11:26;12.05;;;2.85;;
61915;SDS011;47868;51.326;6.550;2023-03-24T10:14:16;9.23;;;2.45;;
61915;SDS011;47868;51.326;6.550;2023-03-24T10:19:19;7.50;;;2.72;;
61915;SDS011;47868;51.326;6.550;2023-03-24T10:21:59;9.07;;;2.88;;
61915;SDS011;47868;51.326;6.550;2023-03-24T10:29:41;7.93;;;2.25;;
61915;SDS011;47868;51.326;6.550;2023-03-24T10:34:36;8.25;;;2.33;;
61915;SDS011;47868;51.326;6.550;2023-03-24T10:37:03;10.13;;;3.05;;
61915;SDS011;47868;51.326;6.550;2023-03-24T10:39:30;6.78;;;2.88;;
61915;SDS011;47868;51.326;6.550;2023-03-24T10:41:57;8.50;;;2.70;;
61915;SDS011;47868;51.326;6.550;2023-03-24T10:44:23;6.43;;;2.58;;
61915;SDS011;47868;51.326;6.550;2023-03-24T10:46:51;9.73;;;3.20;;
61915;SDS011;47868;51.326;6.550;2023-03-24T10:49:19;7.28;;;2.70;;
61915;SDS011;47868;51.326;6.550;2023-03-24T10:51:46;7.93;;;2.75;;
61915;SDS011;47868;51.326;6.550;2023-03-24T10:54:18;7.97;;;2.42;;
61915;SDS011;47868;51.326;6.550;2023-03-24T10:56:46;7.35;;;3.03;;
61915;SDS011;47868;51.326;6.550;2023-03-24T11:01:44;8.50;;;2.70;;
61915;SDS011;47868;51.326;6.550;2023-03-24T11:04:12;8.15;;;2.92;;
61915;SDS011;47868;51.326;6.550;2023-03-24T11:06:51;9.13;;;3.20;;
61915;SDS011;47868;51.326;6.550;2023-03-24T11:09:19;5.63;;;2.80;;
61915;SDS011;47868;51.326;6.550;2023-03-24T11:11:46;7.53;;;2.75;;
61915;SDS011;47868;51.326;6.550;2023-03-24T11:14:22;8.40;;;3.22;;
61915;SDS011;47868;51.326;6.550;2023-03-24T11:16:49;5.47;;;2.95;;
61915;SDS011;47868;51.326;6.550;2023-03-24T11:19:22;7.78;;;2.80;;
61915;SDS011;47868;51.326;6.550;2023-03-24T11:21:51;6.97;;;2.60;;
61915;SDS011;47868;51.326;6.550;2023-03-24T11:24:20;9.52;;;3.15;;
61915;SDS011;47868;51.326;6.550;2023-03-24T11:26:51;9.65;;;3.17;;
61915;SDS011;47868;51.326;6.550;2023-03-24T11:29:20;8.38;;;2.85;;
61915;SDS011;47868;51.326;6.550;2023-03-24T11:31:55;11.95;;;3.40;;
61915;SDS011;47868;51.326;6.550;2023-03-24T11:34:23;7.75;;;2.85;;
61915;SDS011;47868;51.326;6.550;2023-03-24T11:36:51;8.98;;;2.63;;
61915;SDS011;47868;51.326;6.550;2023-03-24T11:44:17;5.97;;;2.50;;
61915;SDS011;47868;51.326;6.550;2023-03-24T11:46:44;6.53;;;2.70;;
61915;SDS011;47868;51.326;6.550;2023-03-24T11:49:12;5.93;;;2.47;;
61915;SDS011;47868;51.326;6.550;2023-03-24T11:51:41;5.60;;;2.35;;
61915;SDS011;47868;51.326;6.550;2023-03-24T11:54:12;7.03;;;2.55;;
61915;SDS011;47868;51.326;6.550;2023-03-24T11:56:39;7.40;;;2.25;;
61915;SDS011;47868;51.326;6.550;2023-03-24T12:04:46;7.22;;;2.47;;
61915;SDS011;47868;51.326;6.550;2023-03-24T12:15:50;7.43;;;2.83;;
61915;SDS011;47868;51.326;6.550;2023-03-24T12:23:35;6.82;;;2.70;;
61915;SDS011;47868;51.326;6.550;2023-03-24T12:26:12;7.72;;;2.42;;
61915;SDS011;47868;51.326;6.550;2023-03-24T12:31:28;7.10;;;2.53;;
61915;SDS011;47868;51.326;6.550;2023-03-24T12:36:44;5.68;;;2.75;;
61915;SDS011;47868;51.326;6.550;2023-03-24T12:39:11;5.43;;;2.88;;
61915;SDS011;47868;51.326;6.550;2023-03-24T12:49:24;8.15;;;2.78;;
61915;SDS011;47868;51.326;6.550;2023-03-24T12:54:30;11.48;;;2.85;;
61915;SDS011;47868;51.326;6.550;2023-03-24T12:56:59;8.18;;;3.05;;
61915;SDS011;47868;51.326;6.550;2023-03-24T12:59:35;10.15;;;3.00;;
61915;SDS011;47868;51.326;6.550;2023-03-24T13:04:35;6.32;;;3.15;;
61915;SDS011;47868;51.326;6.550;2023-03-24T13:20:04;9.05;;;2.55;;
61915;SDS011;47868;51.326;6.550;2023-03-24T13:22:32;5.53;;;2.28;;
61915;SDS011;47868;51.326;6.550;2023-03-24T13:24:58;8.98;;;2.75;;
61915;SDS011;47868;51.326;6.550;2023-03-24T13:37:53;5.65;;;2.05;;
61915;SDS011;47868;51.326;6.550;2023-03-24T13:40:30;7.25;;;2.30;;
61915;SDS011;47868;51.326;6.550;2023-03-24T13:43:11;7.13;;;1.90;;
61915;SDS011;47868;51.326;6.550;2023-03-24T13:48:05;6.53;;;1.92;;
61915;SDS011;47868;51.326;6.550;2023-03-24T13:50:41;4.32;;;1.90;;
61915;SDS011;47868;51.326;6.550;2023-03-24T13:53:12;4.65;;;1.83;;
61915;SDS011;47868;51.326;6.550;2023-03-24T13:55:40;6.18;;;2.50;;
61915;SDS011;47868;51.326;6.550;2023-03-24T13:58:11;5.82;;;2.03;;
61915;SDS011;47868;51.326;6.550;2023-03-24T14:01:29;4.70;;;2.00;;
61915;SDS011;47868;51.326;6.550;2023-03-24T14:03:34;3.33;;;1.50;;
61915;SDS011;47868;51.326;6.550;2023-03-24T14:06:03;3.35;;;1.73;;
61915;SDS011;47868;51.326;6.550;2023-03-24T14:09:13;7.03;;;1.48;;
61915;SDS011;47868;51.326;6.550;2023-03-24T14:17:13;3.58;;;1.90;;
61915;SDS011;47868;51.326;6.550;2023-03-24T14:19:35;4.22;;;1.67;;
61915;SDS011;47868;51.326;6.550;2023-03-24T14:22:21;4.28;;;1.80;;
61915;SDS011;47868;51.326;6.550;2023-03-24T14:24:57;6.82;;;2.03;;
61915;SDS011;47868;51.326;6.550;2023-03-24T14:29:53;3.60;;;1.75;;
61915;SDS011;47868;51.326;6.550;2023-03-24T14:32:20;4.63;;;1.83;;
61915;SDS011;47868;51.326;6.550;2023-03-24T14:34:56;3.58;;;1.92;;
61915;SDS011;47868;51.326;6.550;2023-03-24T14:37:24;4.18;;;1.45;;
61915;SDS011;47868;51.326;6.550;2023-03-24T14:39:51;4.03;;;1.73;;
61915;SDS011;47868;51.326;6.550;2023-03-24T14:44:53;2.92;;;1.55;;
61915;SDS011;47868;51.326;6.550;2023-03-24T14:47:20;5.18;;;1.77;;
61915;SDS011;47868;51.326;6.550;2023-03-24T14:49:47;5.32;;;1.65;;
61915;SDS011;47868;51.326;6.550;2023-03-24T14:52:24;3.63;;;1.58;;
61915;SDS011;47868;51.326;6.550;2023-03-24T14:54:55;3.85;;;1.65;;
61915;SDS011;47868;51.326;6.550;2023-03-24T14:57:29;3.95;;;1.70;;
61915;SDS011;47868;51.326;6.550;2023-03-24T14:59:57;3.78;;;1.83;;
61915;SDS011;47868;51.326;6.550;2023-03-24T15:07:40;4.35;;;1.95;;
61915;SDS011;47868;51.326;6.550;2023-03-24T15:10:16;5.70;;;1.90;;
61915;SDS011;47868;51.326;6.550;2023-03-24T15:12:46;4.45;;;1.85;;
61915;SDS011;47868;51.326;6.550;2023-03-24T15:15:20;6.65;;;2.10;;
61915;SDS011;47868;51.326;6.550;2023-03-24T15:17:47;4.28;;;2.10;;
61915;SDS011;47868;51.326;6.550;2023-03-24T15:20:24;5.55;;;2.28;;
61915;SDS011;47868;51.326;6.550;2023-03-24T15:22:51;4.07;;;2.20;;
61915;SDS011;47868;51.326;6.550;2023-03-24T15:25:23;4.25;;;2.17;;
61915;SDS011;47868;51.326;6.550;2023-03-24T15:27:50;3.53;;;1.98;;
61915;SDS011;47868;51.326;6.550;2023-03-24T15:30:16;7.13;;;3.05;;
61915;SDS011;47868;51.326;6.550;2023-03-24T15:32:42;6.32;;;2.20;;
61915;SDS011;47868;51.326;6.550;2023-03-24T15:35:12;5.38;;;2.30;;
61915;SDS011;47868;51.326;6.550;2023-03-24T15:37:40;3.20;;;1.98;;
61915;SDS011;47868;51.326;6.550;2023-03-24T15:42:50;4.55;;;1.70;;
61915;SDS011;47868;51.326;6.550;2023-03-24T15:45:20;3.92;;;1.63;;
61915;SDS011;47868;51.326;6.550;2023-03-24T15:47:49;4.38;;;1.83;;
61915;SDS011;47868;51.326;6.550;2023-03-24T15:53:01;3.55;;;1.88;;
61915;SDS011;47868;51.326;6.550;2023-03-24T15:57:58;2.70;;;1.60;;
61915;SDS011;47868;51.326;6.550;2023-03-24T16:00:36;2.40;;;1.00;;
61915;SDS011;47868;51.326;6.550;2023-03-24T16:03:02;1.90;;;1.15;;
61915;SDS011;47868;51.326;6.550;2023-03-24T16:05:30;2.80;;;1.23;;
61915;SDS011;47868;51.326;6.550;2023-03-24T16:08:03;1.67;;;1.15;;
61915;SDS011;47868;51.326;6.550;2023-03-24T16:12:58;2.80;;;1.20;;
61915;SDS011;47868;51.326;6.550;2023-03-24T16:15:29;1.88;;;1.10;;
61915;SDS011;47868;51.326;6.550;2023-03-24T16:17:55;1.92;;;1.17;;
61915;SDS011;47868;51.326;6.550;2023-03-24T16:20:21;2.90;;;1.30;;
61915;SDS011;47868;51.326;6.550;2023-03-24T16:22:47;2.67;;;1.30;;
61915;SDS011;47868;51.326;6.550;2023-03-24T16:25:13;1.92;;;1.30;;
61915;SDS011;47868;51.326;6.550;2023-03-24T16:27:40;2.63;;;1.67;;
61915;SDS011;47868;51.326;6.550;2023-03-24T16:30:19;2.90;;;1.33;;
61915;SDS011;47868;51.326;6.550;2023-03-24T16:32:46;3.85;;;1.38;;
61915;SDS011;47868;51.326;6.550;2023-03-24T16:35:12;3.80;;;1.40;;
61915;SDS011;47868;51.326;6.550;2023-03-24T16:37:38;3.30;;;1.40;;
61915;SDS011;47868;51.326;6.550;2023-03-24T16:40:11;1.88;;;1.27;;
61915;SDS011;47868;51.326;6.550;2023-03-24T16:42:43;1.55;;;1.10;;
61915;SDS011;47868;51.326;6.550;2023-03-24T16:45:10;1.50;;;1.20;;
61915;SDS011;47868;51.326;6.550;2023-03-24T16:47:36;2.92;;;0.93;;
61915;SDS011;47868;51.326;6.550;2023-03-24T16:50:15;2.53;;;1.15;;
61915;SDS011;47868;51.326;6.550;2023-03-24T16:52:47;2.53;;;1.38;;
61915;SDS011;47868;51.326;6.550;2023-03-24T16:55:13;3.15;;;1.20;;
61915;SDS011;47868;51.326;6.550;2023-03-24T16:57:39;1.65;;;1.20;;
61915;SDS011;47868;51.326;6.550;2023-03-24T17:00:05;3.20;;;1.10;;
61915;SDS011;47868;51.326;6.550;2023-03-24T17:02:35;2.25;;;1.25;;
61915;SDS011;47868;51.326;6.550;2023-03-24T17:05:04;1.73;;;1.20;;
61915;SDS011;47868;51.326;6.550;2023-03-24T17:07:35;2.70;;;1.25;;
61915;SDS011;47868;51.326;6.550;2023-03-24T17:10:01;2.22;;;1.38;;
61915;SDS011;47868;51.326;6.550;2023-03-24T17:12:28;5.28;;;1.58;;
61915;SDS011;47868;51.326;6.550;2023-03-24T17:14:55;3.70;;;1.33;;
61915;SDS011;47868;51.326;6.550;2023-03-24T17:17:21;1.70;;;1.15;;
61915;SDS011;47868;51.326;6.550;2023-03-24T17:19:47;4.88;;;1.58;;
61915;SDS011;47868;51.326;6.550;2023-03-24T17:22:13;3.00;;;1.45;;
61915;SDS011;47868;51.326;6.550;2023-03-24T17:24:42;2.17;;;1.17;;
61915;SDS011;47868;51.326;6.550;2023-03-24T17:27:15;2.38;;;1.30;;
61915;SDS011;47868;51.326;6.550;2023-03-24T17:29:43;2.42;;;1.50;;
61915;SDS011;47868;51.326;6.550;2023-03-24T17:32:10;5.55;;;1.80;;